Latest Weather Observations for Alva Beach

IDQ60801

Issued at 7:35 pm EST Friday 29 August 2014 (issued every 30 minutes, with the page automatically refreshed every 10 minutes)

About weather observations | Map of weather stations | Latest weather observations for QLD | Other Formats
Station Details ID: 033295 Name: ALVA BEACH Lat: -19.46 Lon: 147.48 Height: 7.5 m
Data from the previous 72 hours. | See also: Recent months at Alva Beach
Date/Time
EST
Temp
°C
App
Temp
°C
Dew
Point
Rel
Hum
%
Delta-T
°C
Wind Press
QNH
hPa
Press
MSL
hPa
Rain
since 9 am
mm
Dir
 
Spd
km/h
Gust
km/h
Spd
kts
Gust
kts
29/07:30pm 20.5 16.4 13.7 65 3.9 E 28 41 15 22 1018.0 1018.0 0.0
29/07:00pm 20.8 17.0 14.7 68 3.6 E 28 41 15 22 1017.7 1017.7 0.0
29/06:30pm 20.9 16.0 13.6 63 4.2 E 32 44 17 24 1017.4 1017.4 0.0
29/06:00pm 21.0 16.9 13.7 63 4.2 E 28 35 15 19 1017.0 1017.0 0.0
29/05:30pm 21.4 16.9 13.8 62 4.4 E 30 39 16 21 1016.8 1016.8 0.0
29/05:00pm 21.6 17.2 14.0 62 4.4 E 30 41 16 22 1016.6 1016.6 0.0
29/04:30pm 22.0 18.1 14.4 62 4.5 E 28 37 15 20 1016.6 1016.6 0.0
29/04:00pm 22.5 18.9 14.1 59 4.9 E 26 35 14 19 1016.6 1016.6 0.0
29/03:30pm 22.3 19.0 13.9 59 4.9 E 24 33 13 18 1016.5 1016.5 0.0
29/03:00pm 22.6 19.0 14.2 59 4.9 E 26 35 14 19 1016.7 1016.7 0.0
29/02:30pm 22.8 19.3 14.4 59 4.9 E 26 35 14 19 1016.9 1016.9 0.0
29/02:00pm 22.9 19.4 13.4 55 5.5 E 24 35 13 19 1017.0 1017.0 0.0
29/01:30pm 22.9 19.9 14.7 60 4.9 E 24 33 13 18 1017.6 1017.6 0.0
29/01:00pm 24.0 21.9 14.7 56 5.5 E 19 28 10 15 1018.4 1018.4 0.0
29/12:30pm 23.8 21.9 14.2 55 5.7 ESE 17 24 9 13 1018.7 1018.7 0.0
29/12:00pm 23.6 21.6 14.0 55 5.6 ESE 17 32 9 17 1019.2 1019.2 0.0
29/11:30am 22.6 20.6 13.9 58 5.1 ESE 17 30 9 16 1019.8 1019.8 0.0
29/11:00am 22.3 20.3 13.9 59 4.9 ESE 17 28 9 15 1020.0 1020.0 0.0
29/10:30am 21.8 20.1 13.7 60 4.7 SE 15 22 8 12 1020.2 1020.2 0.0
29/10:00am 21.4 19.2 13.3 60 4.6 SE 17 24 9 13 1020.4 1020.4 0.0
29/09:30am 21.4 19.9 13.1 59 4.7 SE 13 22 7 12 1020.5 1020.5 0.0
29/09:00am 20.4 19.5 12.6 61 4.4 SE 9 17 5 9 1020.3 1020.3 0.0
29/08:30am 19.0 18.6 13.0 68 3.4 S 7 11 4 6 1020.2 1020.2 0.0
29/08:00am 17.0 16.1 12.5 75 2.5 S 9 13 5 7 1020.0 1020.0 0.0
29/07:30am 14.9 13.8 11.9 82 1.6 S 9 13 5 7 1019.9 1019.9 0.0
29/07:00am 13.3 12.1 11.5 89 1.0 SSW 9 13 5 7 1019.6 1019.6 0.0
29/06:30am 12.3 10.9 10.9 91 0.7 SSW 9 13 5 7 1019.3 1019.3 0.0
29/06:00am 12.0 10.5 10.6 91 0.7 SSW 9 11 5 6 1018.9 1018.9 0.0
29/05:30am 12.0 10.5 10.4 90 0.8 S 9 11 5 6 1018.7 1018.7 0.0
29/05:00am 12.1 10.6 10.5 90 0.8 SSW 9 11 5 6 1018.5 1018.5 0.0
29/04:30am 12.1 10.5 10.3 89 0.9 SSW 9 13 5 7 1018.4 1018.4 0.0
29/04:00am 12.4 10.8 10.3 87 1.1 SSW 9 11 5 6 1018.5 1018.5 0.0
29/03:30am 12.4 11.1 9.8 84 1.3 SSW 7 9 4 5 1018.5 1018.5 0.0
29/03:00am 12.7 11.1 10.1 84 1.3 SSW 9 11 5 6 1018.5 1018.5 0.0
29/02:30am 12.8 11.5 10.0 83 1.4 SSW 7 9 4 5 1018.4 1018.4 0.0
29/02:00am 13.1 11.8 10.1 82 1.5 SSW 7 9 4 5 1018.6 1018.6 0.0
29/01:30am 13.7 12.4 10.1 79 1.9 SSW 7 11 4 6 1018.7 1018.7 0.0
29/01:00am 14.9 13.3 10.3 74 2.4 S 9 11 5 6 1018.7 1018.7 0.0
29/12:30am 18.7 17.9 12.9 69 3.3 E 9 15 5 8 1018.8 1018.8 0.0
29/12:00am 19.0 17.6 12.3 65 3.7 E 11 17 6 9 1018.9 1018.9 0.0
 
Date/Time
EST
Temp
°C
App
Temp
°C
Dew
Point
Rel
Hum
%
Delta-T
°C
Wind Press
QNH
hPa
Press
MSL
hPa
Rain
since 9 am
mm
Dir
 
Spd
km/h
Gust
km/h
Spd
kts
Gust
kts
28/11:30pm 19.4 17.8 12.7 65 3.8 E 13 19 7 10 1019.1 1019.1 0.0
28/11:00pm 19.4 17.7 12.4 64 3.9 E 13 17 7 9 1019.1 1019.1 0.0
28/10:30pm 18.4 17.0 12.2 67 3.4 E 11 17 6 9 1019.2 1019.2 0.0
28/10:00pm 17.9 16.8 11.9 68 3.3 E 9 15 5 8 1019.1 1019.1 0.0
28/09:30pm 18.1 17.1 11.0 63 3.8 E 7 11 4 6 1019.1 1019.1 0.0
28/09:00pm 19.8 18.1 12.3 62 4.2 E 13 19 7 10 1018.9 1018.9 0.0
28/08:30pm 19.6 17.2 11.4 59 4.5 ENE 15 19 8 10 1018.9 1018.9 0.0
28/08:00pm 19.7 16.8 10.9 57 4.8 ENE 17 20 9 11 1018.6 1018.6 0.0
28/07:30pm 19.6 16.7 10.9 57 4.7 ENE 17 20 9 11 1018.2 1018.2 0.0
28/07:00pm 19.7 16.4 10.9 57 4.8 ENE 19 22 10 12 1017.7 1017.7 0.0
28/06:30pm 19.7 16.2 10.1 54 5.2 ENE 19 22 10 12 1017.3 1017.3 0.0
28/06:00pm 20.0 16.4 10.4 54 5.2 NE 20 22 11 12 1016.9 1016.9 0.0
28/05:30pm 20.2 16.6 10.6 54 5.2 NE 20 24 11 13 1016.7 1016.7 0.0
28/05:00pm 20.9 17.2 10.1 50 5.8 ENE 20 24 11 13 1016.4 1016.4 0.0
28/04:30pm 21.1 17.3 9.7 48 6.1 NE 20 26 11 14 1016.1 1016.1 0.0
28/04:00pm 21.8 17.6 9.7 46 6.5 ENE 22 26 12 14 1015.8 1015.8 0.0
28/03:30pm 21.7 16.8 8.6 43 6.9 NE 24 28 13 15 1015.7 1015.7 0.0
28/03:00pm 22.5 17.6 10.0 45 6.8 ENE 26 30 14 16 1015.9 1015.9 0.0
28/02:30pm 22.4 17.7 9.2 43 7.1 ENE 24 30 13 16 1016.2 1016.2 0.0
28/02:00pm 22.4 16.9 9.2 43 7.1 ENE 28 32 15 17 1016.5 1016.5 0.0
28/01:30pm 22.2 18.0 8.3 41 7.3 ENE 20 28 11 15 1016.9 1016.9 0.0
28/01:00pm 22.1 17.6 6.3 36 8.0 E 19 24 10 13 1017.4 1017.4 0.0
28/12:30pm 21.7 17.6 6.4 37 7.8 E 17 26 9 14 1017.8 1017.8 0.0
28/12:00pm 22.1 18.1 5.1 33 8.4 E 15 24 8 13 1018.4 1018.4 0.0
28/11:30am 22.8 18.7 7.8 38 7.9 E 19 28 10 15 1018.8 1018.8 0.0
28/11:00am 22.4 18.3 4.5 31 8.8 ESE 15 24 8 13 1019.3 1019.3 0.0
28/10:30am 22.3 18.2 6.1 35 8.2 ESE 17 33 9 18 1019.5 1019.5 0.0
28/10:00am 21.1 16.7 4.6 34 8.0 SE 17 24 9 13 1019.7 1019.7 0.0
28/09:30am 21.2 18.0 3.0 30 8.6 SE 9 19 5 10 1019.7 1019.7 0.0
28/09:00am 18.9 15.3 3.1 35 7.3 S 11 20 6 11 1019.5 1019.5 0.0
28/08:30am 17.0 13.4 3.0 39 6.4 S 11 20 6 11 1019.2 1019.2 0.0
28/08:00am 14.8 11.4 4.2 49 4.9 SSW 11 20 6 11 1018.8 1018.8 0.0
28/07:30am 12.8 9.2 3.2 52 4.3 SSW 11 15 6 8 1018.3 1018.3 0.0
28/07:00am 11.0 7.8 3.1 58 3.4 SW 9 13 5 7 1017.9 1017.9 0.0
28/06:30am 9.9 6.4 1.5 56 3.5 SW 9 11 5 6 1017.4 1017.4 0.0
28/06:00am 9.5 6.6 2.8 63 2.9 SW 7 9 4 5 1017.1 1017.1 0.0
28/05:30am 9.3 6.7 4.1 70 2.3 SW 7 9 4 5 1016.9 1016.9 0.0
28/05:00am 11.0 7.9 1.3 51 4.0 SSW 7 9 4 5 1016.9 1016.9 0.0
28/04:30am 10.9 8.0 2.7 57 3.5 SSW 7 11 4 6 1016.7 1016.7 0.0
28/04:00am 11.0 8.3 3.5 60 3.3 SW 7 11 4 6 1016.6 1016.6 0.0
28/03:30am 11.4 8.0 3.9 60 3.3 SW 11 15 6 8 1016.6 1016.6 0.0
28/03:00am 11.9 9.3 6.0 67 2.8 SW 9 13 5 7 1016.6 1016.6 0.0
28/02:30am 11.8 9.2 7.9 77 1.9 SSW 11 17 6 9 1016.8 1016.8 0.0
28/02:00am 12.3 10.3 8.8 79 1.7 SW 9 13 5 7 1016.6 1016.6 0.0
28/01:30am 12.9 11.0 9.0 77 2.0 SSW 9 11 5 6 1016.9 1016.9 0.0
28/01:00am 13.9 12.0 8.9 72 2.5 S 9 11 5 6 1016.9 1016.9 0.0
28/12:30am 14.7 13.0 9.9 73 2.5 S 9 11 5 6 1017.0 1017.0 0.0
28/12:00am 14.6 13.4 10.2 75 2.3 S 7 11 4 6 1017.1 1017.1 0.0
 
Date/Time
EST
Temp
°C
App
Temp
°C
Dew
Point
Rel
Hum
%
Delta-T
°C
Wind Press
QNH
hPa
Press
MSL
hPa
Rain
since 9 am
mm
Dir
 
Spd
km/h
Gust
km/h
Spd
kts
Gust
kts
27/11:30pm 15.5 15.2 12.8 84 1.5 SSW 6 7 3 4 1017.3 1017.3 0.0
27/11:00pm 15.0 14.5 12.5 85 1.4 SSW 7 9 4 5 1017.6 1017.6 0.0
27/10:30pm 14.8 14.2 12.3 85 1.4 SSW 7 13 4 7 1017.4 1017.4 0.0
27/10:00pm 14.9 14.2 11.9 82 1.6 SW 7 9 4 5 1017.3 1017.3 0.0
27/09:30pm 15.1 14.4 11.9 81 1.7 WSW 7 9 4 5 1016.9 1016.9 0.0
27/09:00pm 15.8 15.2 12.4 80 1.9 WSW 7 9 4 5 1016.9 1016.9 0.0
27/08:30pm 16.2 16.1 12.0 76 2.3 W 4 7 2 4 1016.7 1016.7 0.0
27/08:00pm 17.2 16.8 12.3 73 2.7 W 6 7 3 4 1016.4 1016.4 0.0
27/07:30pm 17.3 17.1 11.8 70 3.0 W 4 6 2 3 1016.0 1016.0 0.0
27/07:00pm 18.7 18.8 11.5 63 3.9 NW 2 7 1 4 1015.5 1015.5 0.0
27/06:30pm 19.8 18.9 11.3 58 4.7 NNW 7 11 4 6 1015.0 1015.0 0.0
27/06:00pm 20.6 19.7 11.2 55 5.2 NNW 7 13 4 7 1014.6 1014.6 0.0
27/05:30pm 21.4 20.4 11.1 52 5.7 N 7 13 4 7 1014.2 1014.2 0.0
27/05:00pm 22.0 20.4 10.2 47 6.4 N 9 15 5 8 1014.0 1014.0 0.0
27/04:30pm 22.4 20.3 11.2 49 6.2 N 13 20 7 11 1013.7 1013.7 0.0
27/04:00pm 22.9 20.2 11.6 49 6.3 N 17 20 9 11 1013.7 1013.7 0.0
27/03:30pm 23.3 20.0 9.7 42 7.4 N 17 22 9 12 1013.7 1013.7 0.0
27/03:00pm 23.3 20.2 12.3 50 6.3 NNE 20 24 11 13 1013.8 1013.8 0.0
27/02:30pm 22.8 19.8 12.1 51 6.1 NNE 19 22 10 12 1014.0 1014.0 0.0
27/02:00pm 22.5 19.2 10.9 48 6.4 NNE 19 22 10 12 1014.3 1014.3 0.0
27/01:30pm 22.9 19.9 11.9 50 6.2 NE 19 22 10 12 1014.8 1014.8 0.0
27/01:00pm 24.0 21.4 12.0 47 6.8 ENE 17 19 9 10 1015.3 1015.3 0.0
27/12:30pm 23.6 20.6 12.6 50 6.3 ENE 20 24 11 13 1015.7 1015.7 0.0
27/12:00pm 25.2 21.8 2.0 22 11.1 S 9 15 5 8 1016.3 1016.3 0.0
27/11:30am 25.2 22.7 4.9 27 10.2 SSW 7 13 4 7 1016.8 1016.8 0.0
27/11:00am 23.9 20.6 4.3 28 9.7 SSW 11 19 6 10 1017.3 1017.3 0.0
27/10:30am 23.6 20.7 6.4 33 8.8 SW 11 17 6 9 1017.7 1017.7 0.0
27/10:00am 22.1 20.0 9.6 45 6.7 SW 11 19 6 10 1018.0 1018.0 0.0
27/09:30am 20.9 19.3 11.5 55 5.2 SW 11 17 6 9 1018.2 1018.2 0.0
27/09:00am 19.6 17.4 10.9 57 4.7 SW 13 22 7 12 1018.0 1018.0 0.0
27/08:30am 18.4 17.4 12.2 67 3.4 SW 9 15 5 8 1018.0 1018.0 0.0
27/08:00am 16.5 15.2 11.4 72 2.7 SW 9 19 5 10 1017.8 1017.8 0.0
27/07:30am 14.3 13.1 11.5 83 1.5 SW 9 13 5 7 1017.6 1017.6 0.0
27/07:00am 13.1 11.8 11.2 88 1.0 SSW 9 13 5 7 1017.1 1017.1 0.0
27/06:30am 12.7 11.4 11.1 90 0.8 SW 9 13 5 7 1016.8 1016.8 0.0
27/06:00am 12.5 11.2 11.1 91 0.7 SSW 9 11 5 6 1016.4 1016.4 0.0
27/05:30am 12.6 11.3 11.2 91 0.7 SSW 9 11 5 6 1016.2 1016.2 0.0
27/05:00am 12.7 11.4 11.4 92 0.7 SW 9 11 5 6 1016.1 1016.1 0.0
27/04:30am 12.5 11.6 11.2 92 0.7 SW 7 11 4 6 1016.0 1016.0 0.0
27/04:00am 12.8 11.2 11.5 92 0.7 SSW 11 15 6 8 1015.9 1015.9 0.0
27/03:30am 12.9 11.3 11.5 91 0.7 SSW 11 15 6 8 1015.7 1015.7 0.0
27/03:00am 13.2 12.1 11.8 91 0.7 SSW 9 13 5 7 1015.7 1015.7 0.0
27/02:30am 13.5 12.4 12.1 91 0.8 WSW 9 11 5 6 1015.8 1015.8 0.0
27/02:00am 13.2 12.1 11.9 92 0.7 SW 9 9 5 5 1016.1 1016.1 0.0
27/01:30am 13.4 12.3 11.8 90 0.9 W 9 11 5 6 1016.4 1016.4 0.0
27/01:00am 14.4 13.8 12.3 87 1.1 SSW 7 9 4 5 1016.6 1016.6 0.0
27/12:30am 14.4 13.5 11.4 82 1.6 SW 7 9 4 5 1017.0 1017.0 0.0
27/12:00am 15.2 15.4 11.8 80 1.8 NE 2 6 1 3 1017.1 1017.1 0.0
 
Date/Time
EST
Temp
°C
App
Temp
°C
Dew
Point
Rel
Hum
%
Delta-T
°C
Wind Press
QNH
hPa
Press
MSL
hPa
Rain
since 9 am
mm
Dir
 
Spd
km/h
Gust
km/h
Spd
kts
Gust
kts
26/11:30pm 15.9 15.1 10.9 72 2.7 NNE 6 9 3 5 1017.2 1017.2 0.0
26/11:00pm 18.3 16.8 11.8 66 3.6 NE 11 13 6 7 1017.3 1017.3 0.0
26/10:30pm 18.3 17.0 12.5 69 3.2 NE 11 13 6 7 1017.3 1017.3 0.0
26/10:00pm 19.8 18.5 12.6 63 4.0 ENE 11 15 6 8 1017.4 1017.4 0.0
26/09:30pm 20.1 19.0 13.1 64 4.0 ENE 11 15 6 8 1017.4 1017.4 0.0
26/09:00pm 20.2 18.6 12.9 63 4.1 ENE 13 17 7 9 1017.4 1017.4 0.0
26/08:30pm 20.1 18.4 12.6 62 4.2 ENE 13 15 7 8 1017.2 1017.2 0.0
26/08:00pm 20.3 18.9 13.3 64 4.0 ENE 13 19 7 10 1017.0 1017.0 0.0

Other Formats:

Comma delimited format used in spreadsheet applications
http://www.bom.gov.au/fwo/IDQ60801/IDQ60801.95296.axf

JavaScript Object Notation format (JSON) in row-major order
http://www.bom.gov.au/fwo/IDQ60801/IDQ60801.95296.json